sensor_id;sensor_type;location;lat;lon;timestamp;P1;durP1;ratioP1;P2;durP2;ratioP2
47796;SDS011;33558;50.922;14.068;2023-04-03T00:01:23;2.43;;;1.30;;
47796;SDS011;33558;50.922;14.068;2023-04-03T00:03:50;6.07;;;1.50;;
47796;SDS011;33558;50.922;14.068;2023-04-03T00:06:17;2.90;;;1.33;;
47796;SDS011;33558;50.922;14.068;2023-04-03T00:08:44;3.43;;;1.23;;
47796;SDS011;33558;50.922;14.068;2023-04-03T00:11:10;6.67;;;1.40;;
47796;SDS011;33558;50.922;14.068;2023-04-03T00:13:38;4.33;;;1.43;;
47796;SDS011;33558;50.922;14.068;2023-04-03T00:16:05;5.50;;;2.10;;
47796;SDS011;33558;50.922;14.068;2023-04-03T00:18:34;4.13;;;1.10;;
47796;SDS011;33558;50.922;14.068;2023-04-03T00:21:01;3.73;;;1.30;;
47796;SDS011;33558;50.922;14.068;2023-04-03T00:23:27;4.93;;;1.30;;
47796;SDS011;33558;50.922;14.068;2023-04-03T00:25:54;2.83;;;1.30;;
47796;SDS011;33558;50.922;14.068;2023-04-03T00:28:21;2.87;;;0.90;;
47796;SDS011;33558;50.922;14.068;2023-04-03T00:30:48;2.83;;;0.90;;
47796;SDS011;33558;50.922;14.068;2023-04-03T00:33:15;2.93;;;0.90;;
47796;SDS011;33558;50.922;14.068;2023-04-03T00:35:43;2.73;;;1.10;;
47796;SDS011;33558;50.922;14.068;2023-04-03T00:38:10;3.40;;;1.07;;
47796;SDS011;33558;50.922;14.068;2023-04-03T00:40:37;2.53;;;1.00;;
47796;SDS011;33558;50.922;14.068;2023-04-03T00:43:09;3.63;;;0.90;;
47796;SDS011;33558;50.922;14.068;2023-04-03T00:45:38;3.03;;;0.90;;
47796;SDS011;33558;50.922;14.068;2023-04-03T00:48:07;2.10;;;0.70;;
47796;SDS011;33558;50.922;14.068;2023-04-03T00:50:38;4.97;;;1.40;;
47796;SDS011;33558;50.922;14.068;2023-04-03T00:53:08;3.07;;;0.90;;
47796;SDS011;33558;50.922;14.068;2023-04-03T00:55:36;2.63;;;0.70;;
47796;SDS011;33558;50.922;14.068;2023-04-03T00:58:03;4.13;;;1.10;;
47796;SDS011;33558;50.922;14.068;2023-04-03T01:00:32;2.87;;;1.20;;
47796;SDS011;33558;50.922;14.068;2023-04-03T01:02:59;2.13;;;1.07;;
47796;SDS011;33558;50.922;14.068;2023-04-03T01:05:26;2.70;;;1.17;;
47796;SDS011;33558;50.922;14.068;2023-04-03T01:07:53;6.27;;;2.13;;
47796;SDS011;33558;50.922;14.068;2023-04-03T01:10:21;5.30;;;1.90;;
47796;SDS011;33558;50.922;14.068;2023-04-03T01:12:49;4.17;;;1.37;;
47796;SDS011;33558;50.922;14.068;2023-04-03T01:15:18;3.73;;;1.23;;
47796;SDS011;33558;50.922;14.068;2023-04-03T01:17:46;3.83;;;1.33;;
47796;SDS011;33558;50.922;14.068;2023-04-03T01:23:25;4.43;;;1.33;;
47796;SDS011;33558;50.922;14.068;2023-04-03T01:25:59;4.00;;;1.30;;
47796;SDS011;33558;50.922;14.068;2023-04-03T01:28:27;2.97;;;1.23;;
47796;SDS011;33558;50.922;14.068;2023-04-03T01:30:58;3.17;;;1.00;;
47796;SDS011;33558;50.922;14.068;2023-04-03T01:33:33;5.00;;;1.50;;
47796;SDS011;33558;50.922;14.068;2023-04-03T01:36:00;3.83;;;1.40;;
47796;SDS011;33558;50.922;14.068;2023-04-03T01:38:28;3.57;;;1.20;;
47796;SDS011;33558;50.922;14.068;2023-04-03T01:40:55;9.00;;;1.40;;
47796;SDS011;33558;50.922;14.068;2023-04-03T01:43:22;2.37;;;1.03;;
47796;SDS011;33558;50.922;14.068;2023-04-03T01:45:49;2.57;;;1.00;;
47796;SDS011;33558;50.922;14.068;2023-04-03T01:48:17;7.37;;;1.50;;
47796;SDS011;33558;50.922;14.068;2023-04-03T01:50:46;4.20;;;1.20;;
47796;SDS011;33558;50.922;14.068;2023-04-03T01:53:13;5.87;;;2.07;;
47796;SDS011;33558;50.922;14.068;2023-04-03T01:55:39;3.43;;;0.90;;
47796;SDS011;33558;50.922;14.068;2023-04-03T01:58:06;3.73;;;1.47;;
47796;SDS011;33558;50.922;14.068;2023-04-03T02:00:33;4.37;;;1.30;;
47796;SDS011;33558;50.922;14.068;2023-04-03T02:02:59;3.53;;;1.10;;
47796;SDS011;33558;50.922;14.068;2023-04-03T02:05:26;2.80;;;1.27;;
47796;SDS011;33558;50.922;14.068;2023-04-03T02:07:54;4.17;;;1.13;;
47796;SDS011;33558;50.922;14.068;2023-04-03T02:10:21;3.00;;;1.00;;
47796;SDS011;33558;50.922;14.068;2023-04-03T02:12:48;4.33;;;1.67;;
47796;SDS011;33558;50.922;14.068;2023-04-03T02:15:14;2.50;;;1.20;;
47796;SDS011;33558;50.922;14.068;2023-04-03T02:17:41;2.80;;;1.07;;
47796;SDS011;33558;50.922;14.068;2023-04-03T02:20:08;3.80;;;1.30;;
47796;SDS011;33558;50.922;14.068;2023-04-03T02:22:35;5.77;;;1.77;;
47796;SDS011;33558;50.922;14.068;2023-04-03T02:25:04;5.80;;;1.70;;
47796;SDS011;33558;50.922;14.068;2023-04-03T02:27:31;3.90;;;1.40;;
47796;SDS011;33558;50.922;14.068;2023-04-03T02:29:57;5.10;;;1.70;;
47796;SDS011;33558;50.922;14.068;2023-04-03T02:32:24;3.80;;;1.50;;
47796;SDS011;33558;50.922;14.068;2023-04-03T02:34:51;3.60;;;1.20;;
47796;SDS011;33558;50.922;14.068;2023-04-03T02:37:18;3.00;;;1.30;;
47796;SDS011;33558;50.922;14.068;2023-04-03T02:39:46;5.37;;;1.40;;
47796;SDS011;33558;50.922;14.068;2023-04-03T02:42:14;4.27;;;1.40;;
47796;SDS011;33558;50.922;14.068;2023-04-03T02:44:41;7.10;;;1.57;;
47796;SDS011;33558;50.922;14.068;2023-04-03T02:47:09;4.63;;;1.50;;
47796;SDS011;33558;50.922;14.068;2023-04-03T02:49:35;3.97;;;1.50;;
47796;SDS011;33558;50.922;14.068;2023-04-03T02:52:02;3.10;;;1.53;;
47796;SDS011;33558;50.922;14.068;2023-04-03T02:54:29;4.23;;;1.30;;
47796;SDS011;33558;50.922;14.068;2023-04-03T02:56:59;2.77;;;1.20;;
47796;SDS011;33558;50.922;14.068;2023-04-03T02:59:27;2.73;;;1.00;;
47796;SDS011;33558;50.922;14.068;2023-04-03T03:01:54;3.43;;;1.10;;
47796;SDS011;33558;50.922;14.068;2023-04-03T03:04:21;3.67;;;1.43;;
47796;SDS011;33558;50.922;14.068;2023-04-03T03:06:48;3.33;;;1.50;;
47796;SDS011;33558;50.922;14.068;2023-04-03T03:09:15;3.07;;;1.30;;
47796;SDS011;33558;50.922;14.068;2023-04-03T03:11:42;4.53;;;1.70;;
47796;SDS011;33558;50.922;14.068;2023-04-03T03:14:09;3.73;;;1.80;;
47796;SDS011;33558;50.922;14.068;2023-04-03T03:16:37;3.80;;;1.30;;
47796;SDS011;33558;50.922;14.068;2023-04-03T03:19:03;2.73;;;1.40;;
47796;SDS011;33558;50.922;14.068;2023-04-03T03:21:32;2.77;;;1.30;;
47796;SDS011;33558;50.922;14.068;2023-04-03T03:23:58;3.23;;;1.37;;
47796;SDS011;33558;50.922;14.068;2023-04-03T03:26:25;3.97;;;1.33;;
47796;SDS011;33558;50.922;14.068;2023-04-03T03:28:52;4.57;;;1.53;;
47796;SDS011;33558;50.922;14.068;2023-04-03T03:31:19;3.20;;;1.50;;
47796;SDS011;33558;50.922;14.068;2023-04-03T03:33:47;2.73;;;1.20;;
47796;SDS011;33558;50.922;14.068;2023-04-03T03:36:13;6.47;;;1.43;;
47796;SDS011;33558;50.922;14.068;2023-04-03T03:38:40;4.10;;;2.20;;
47796;SDS011;33558;50.922;14.068;2023-04-03T03:41:08;4.37;;;1.37;;
47796;SDS011;33558;50.922;14.068;2023-04-03T03:43:35;7.07;;;1.20;;
47796;SDS011;33558;50.922;14.068;2023-04-03T03:46:04;3.87;;;1.77;;
47796;SDS011;33558;50.922;14.068;2023-04-03T03:48:30;3.60;;;1.57;;
47796;SDS011;33558;50.922;14.068;2023-04-03T03:50:58;4.57;;;1.20;;
47796;SDS011;33558;50.922;14.068;2023-04-03T03:53:29;3.53;;;1.40;;
47796;SDS011;33558;50.922;14.068;2023-04-03T03:56:01;4.60;;;1.63;;
47796;SDS011;33558;50.922;14.068;2023-04-03T03:58:29;6.73;;;2.20;;
47796;SDS011;33558;50.922;14.068;2023-04-03T04:00:59;4.50;;;2.23;;
47796;SDS011;33558;50.922;14.068;2023-04-03T04:03:26;7.43;;;1.87;;
47796;SDS011;33558;50.922;14.068;2023-04-03T04:05:53;4.93;;;1.50;;
47796;SDS011;33558;50.922;14.068;2023-04-03T04:08:21;5.47;;;1.60;;
47796;SDS011;33558;50.922;14.068;2023-04-03T04:10:48;4.37;;;1.30;;
47796;SDS011;33558;50.922;14.068;2023-04-03T04:13:17;3.83;;;1.80;;
47796;SDS011;33558;50.922;14.068;2023-04-03T04:15:44;3.80;;;1.70;;
47796;SDS011;33558;50.922;14.068;2023-04-03T04:18:12;6.90;;;1.50;;
47796;SDS011;33558;50.922;14.068;2023-04-03T04:20:42;2.77;;;1.23;;
47796;SDS011;33558;50.922;14.068;2023-04-03T04:23:08;7.00;;;1.63;;
47796;SDS011;33558;50.922;14.068;2023-04-03T04:25:38;4.40;;;1.57;;
47796;SDS011;33558;50.922;14.068;2023-04-03T04:28:05;5.13;;;1.53;;
47796;SDS011;33558;50.922;14.068;2023-04-03T04:30:32;3.70;;;1.80;;
47796;SDS011;33558;50.922;14.068;2023-04-03T04:32:59;3.77;;;1.27;;
47796;SDS011;33558;50.922;14.068;2023-04-03T04:35:26;3.93;;;1.40;;
47796;SDS011;33558;50.922;14.068;2023-04-03T04:37:53;6.73;;;2.13;;
47796;SDS011;33558;50.922;14.068;2023-04-03T04:40:20;3.47;;;1.47;;
47796;SDS011;33558;50.922;14.068;2023-04-03T04:42:49;3.27;;;1.30;;
47796;SDS011;33558;50.922;14.068;2023-04-03T04:45:15;4.10;;;1.63;;
47796;SDS011;33558;50.922;14.068;2023-04-03T04:47:44;4.10;;;1.80;;
47796;SDS011;33558;50.922;14.068;2023-04-03T04:50:11;3.70;;;1.40;;
47796;SDS011;33558;50.922;14.068;2023-04-03T04:52:39;6.17;;;1.70;;
47796;SDS011;33558;50.922;14.068;2023-04-03T04:55:07;7.37;;;1.70;;
47796;SDS011;33558;50.922;14.068;2023-04-03T04:57:34;5.43;;;1.50;;
47796;SDS011;33558;50.922;14.068;2023-04-03T05:00:04;4.53;;;1.43;;
47796;SDS011;33558;50.922;14.068;2023-04-03T05:02:32;3.77;;;1.30;;
47796;SDS011;33558;50.922;14.068;2023-04-03T05:04:59;4.97;;;1.37;;
47796;SDS011;33558;50.922;14.068;2023-04-03T05:07:28;6.53;;;1.70;;
47796;SDS011;33558;50.922;14.068;2023-04-03T05:09:56;4.17;;;1.70;;
47796;SDS011;33558;50.922;14.068;2023-04-03T05:12:23;6.10;;;1.63;;
47796;SDS011;33558;50.922;14.068;2023-04-03T05:14:55;3.33;;;1.20;;
47796;SDS011;33558;50.922;14.068;2023-04-03T05:17:24;3.03;;;1.50;;
47796;SDS011;33558;50.922;14.068;2023-04-03T05:19:54;7.23;;;2.10;;
47796;SDS011;33558;50.922;14.068;2023-04-03T05:22:22;5.27;;;1.40;;
47796;SDS011;33558;50.922;14.068;2023-04-03T05:24:52;3.77;;;1.87;;
47796;SDS011;33558;50.922;14.068;2023-04-03T05:27:20;4.47;;;2.13;;
47796;SDS011;33558;50.922;14.068;2023-04-03T05:29:52;4.60;;;1.77;;
47796;SDS011;33558;50.922;14.068;2023-04-03T05:32:20;4.90;;;1.60;;
47796;SDS011;33558;50.922;14.068;2023-04-03T05:34:54;4.90;;;1.77;;
47796;SDS011;33558;50.922;14.068;2023-04-03T05:37:20;10.13;;;2.17;;
47796;SDS011;33558;50.922;14.068;2023-04-03T05:39:49;3.60;;;1.73;;
47796;SDS011;33558;50.922;14.068;2023-04-03T05:42:16;4.53;;;1.93;;
47796;SDS011;33558;50.922;14.068;2023-04-03T05:44:43;5.93;;;1.67;;
47796;SDS011;33558;50.922;14.068;2023-04-03T05:47:12;3.60;;;2.10;;
47796;SDS011;33558;50.922;14.068;2023-04-03T05:49:40;3.50;;;1.87;;
47796;SDS011;33558;50.922;14.068;2023-04-03T05:52:11;3.77;;;1.60;;
47796;SDS011;33558;50.922;14.068;2023-04-03T05:54:44;7.87;;;2.30;;
47796;SDS011;33558;50.922;14.068;2023-04-03T05:57:17;3.43;;;1.63;;
47796;SDS011;33558;50.922;14.068;2023-04-03T05:59:45;5.73;;;1.77;;
47796;SDS011;33558;50.922;14.068;2023-04-03T06:02:15;3.67;;;1.63;;
47796;SDS011;33558;50.922;14.068;2023-04-03T06:04:44;6.63;;;2.03;;
47796;SDS011;33558;50.922;14.068;2023-04-03T06:07:15;5.07;;;1.60;;
47796;SDS011;33558;50.922;14.068;2023-04-03T06:09:43;4.83;;;1.97;;
47796;SDS011;33558;50.922;14.068;2023-04-03T06:12:11;4.10;;;1.63;;
47796;SDS011;33558;50.922;14.068;2023-04-03T06:14:38;3.60;;;1.90;;
47796;SDS011;33558;50.922;14.068;2023-04-03T06:17:05;8.53;;;2.03;;
47796;SDS011;33558;50.922;14.068;2023-04-03T06:19:33;3.63;;;1.93;;
47796;SDS011;33558;50.922;14.068;2023-04-03T06:22:00;3.87;;;2.03;;
47796;SDS011;33558;50.922;14.068;2023-04-03T06:24:30;6.87;;;2.47;;
47796;SDS011;33558;50.922;14.068;2023-04-03T06:26:57;3.80;;;2.23;;
47796;SDS011;33558;50.922;14.068;2023-04-03T06:29:24;3.73;;;2.20;;
47796;SDS011;33558;50.922;14.068;2023-04-03T06:31:51;3.87;;;2.37;;
47796;SDS011;33558;50.922;14.068;2023-04-03T06:34:18;9.67;;;2.33;;
47796;SDS011;33558;50.922;14.068;2023-04-03T06:36:45;7.63;;;2.47;;
47796;SDS011;33558;50.922;14.068;2023-04-03T06:39:12;4.60;;;2.07;;
47796;SDS011;33558;50.922;14.068;2023-04-03T06:41:41;5.33;;;2.00;;
47796;SDS011;33558;50.922;14.068;2023-04-03T06:44:08;7.30;;;2.10;;
47796;SDS011;33558;50.922;14.068;2023-04-03T06:46:36;4.50;;;1.97;;
47796;SDS011;33558;50.922;14.068;2023-04-03T06:49:04;5.43;;;1.97;;
47796;SDS011;33558;50.922;14.068;2023-04-03T06:51:32;3.80;;;1.90;;
47796;SDS011;33558;50.922;14.068;2023-04-03T06:53:59;6.03;;;2.07;;
47796;SDS011;33558;50.922;14.068;2023-04-03T06:56:27;6.13;;;2.23;;
47796;SDS011;33558;50.922;14.068;2023-04-03T06:58:55;5.77;;;2.30;;
47796;SDS011;33558;50.922;14.068;2023-04-03T07:01:23;4.60;;;2.00;;
47796;SDS011;33558;50.922;14.068;2023-04-03T07:03:51;6.03;;;2.33;;
47796;SDS011;33558;50.922;14.068;2023-04-03T07:06:18;5.57;;;2.10;;
47796;SDS011;33558;50.922;14.068;2023-04-03T07:08:45;5.03;;;1.97;;
47796;SDS011;33558;50.922;14.068;2023-04-03T07:11:13;3.30;;;1.80;;
47796;SDS011;33558;50.922;14.068;2023-04-03T07:13:40;7.77;;;2.50;;
47796;SDS011;33558;50.922;14.068;2023-04-03T07:16:08;6.60;;;2.40;;
47796;SDS011;33558;50.922;14.068;2023-04-03T07:18:35;4.47;;;2.50;;
47796;SDS011;33558;50.922;14.068;2023-04-03T07:21:02;4.37;;;2.60;;
47796;SDS011;33558;50.922;14.068;2023-04-03T07:23:29;8.70;;;2.63;;
47796;SDS011;33558;50.922;14.068;2023-04-03T07:25:56;4.87;;;2.13;;
47796;SDS011;33558;50.922;14.068;2023-04-03T07:28:22;6.43;;;2.43;;
47796;SDS011;33558;50.922;14.068;2023-04-03T07:30:50;6.50;;;2.47;;
47796;SDS011;33558;50.922;14.068;2023-04-03T07:33:20;7.70;;;2.83;;
47796;SDS011;33558;50.922;14.068;2023-04-03T07:35:48;6.90;;;2.40;;
47796;SDS011;33558;50.922;14.068;2023-04-03T07:38:15;7.67;;;3.20;;
47796;SDS011;33558;50.922;14.068;2023-04-03T07:40:45;7.50;;;2.67;;
47796;SDS011;33558;50.922;14.068;2023-04-03T07:43:12;5.20;;;2.47;;
47796;SDS011;33558;50.922;14.068;2023-04-03T07:45:39;4.80;;;2.60;;
47796;SDS011;33558;50.922;14.068;2023-04-03T07:48:06;5.07;;;3.20;;
47796;SDS011;33558;50.922;14.068;2023-04-03T07:50:34;3.97;;;2.27;;
47796;SDS011;33558;50.922;14.068;2023-04-03T07:53:01;3.33;;;2.10;;
47796;SDS011;33558;50.922;14.068;2023-04-03T07:55:28;4.83;;;2.37;;
47796;SDS011;33558;50.922;14.068;2023-04-03T07:57:54;6.53;;;2.53;;
47796;SDS011;33558;50.922;14.068;2023-04-03T08:00:21;5.30;;;2.43;;
47796;SDS011;33558;50.922;14.068;2023-04-03T08:02:48;4.23;;;2.20;;
47796;SDS011;33558;50.922;14.068;2023-04-03T08:05:16;7.70;;;3.10;;
47796;SDS011;33558;50.922;14.068;2023-04-03T08:07:45;5.97;;;3.37;;
47796;SDS011;33558;50.922;14.068;2023-04-03T08:10:12;4.90;;;2.40;;
47796;SDS011;33558;50.922;14.068;2023-04-03T08:12:38;5.90;;;2.20;;
47796;SDS011;33558;50.922;14.068;2023-04-03T08:15:06;6.33;;;2.10;;
47796;SDS011;33558;50.922;14.068;2023-04-03T08:17:33;6.57;;;2.80;;
47796;SDS011;33558;50.922;14.068;2023-04-03T08:20:00;5.67;;;2.80;;
47796;SDS011;33558;50.922;14.068;2023-04-03T08:22:27;5.20;;;2.53;;
47796;SDS011;33558;50.922;14.068;2023-04-03T08:24:55;5.60;;;2.53;;
47796;SDS011;33558;50.922;14.068;2023-04-03T08:27:22;6.73;;;2.40;;
47796;SDS011;33558;50.922;14.068;2023-04-03T08:29:49;9.17;;;2.73;;
47796;SDS011;33558;50.922;14.068;2023-04-03T08:32:16;8.43;;;2.70;;
47796;SDS011;33558;50.922;14.068;2023-04-03T08:34:43;3.90;;;2.07;;
47796;SDS011;33558;50.922;14.068;2023-04-03T08:37:10;4.80;;;2.33;;
47796;SDS011;33558;50.922;14.068;2023-04-03T08:39:36;9.27;;;2.30;;
47796;SDS011;33558;50.922;14.068;2023-04-03T08:42:05;4.67;;;1.93;;
47796;SDS011;33558;50.922;14.068;2023-04-03T08:44:38;5.53;;;2.10;;
47796;SDS011;33558;50.922;14.068;2023-04-03T08:47:10;6.37;;;2.50;;
47796;SDS011;33558;50.922;14.068;2023-04-03T08:49:40;6.57;;;2.47;;
47796;SDS011;33558;50.922;14.068;2023-04-03T08:52:12;7.07;;;2.13;;
47796;SDS011;33558;50.922;14.068;2023-04-03T08:54:47;5.43;;;1.70;;
47796;SDS011;33558;50.922;14.068;2023-04-03T08:57:17;5.03;;;2.00;;
47796;SDS011;33558;50.922;14.068;2023-04-03T08:59:51;6.50;;;2.00;;
47796;SDS011;33558;50.922;14.068;2023-04-03T09:02:23;4.93;;;1.90;;
47796;SDS011;33558;50.922;14.068;2023-04-03T09:04:51;4.47;;;1.90;;
47796;SDS011;33558;50.922;14.068;2023-04-03T09:07:20;4.20;;;2.37;;
47796;SDS011;33558;50.922;14.068;2023-04-03T09:09:48;4.27;;;2.23;;
47796;SDS011;33558;50.922;14.068;2023-04-03T09:12:18;4.37;;;1.90;;
47796;SDS011;33558;50.922;14.068;2023-04-03T09:14:51;3.60;;;1.47;;
47796;SDS011;33558;50.922;14.068;2023-04-03T09:17:26;3.07;;;1.40;;
47796;SDS011;33558;50.922;14.068;2023-04-03T09:20:02;4.97;;;1.73;;
47796;SDS011;33558;50.922;14.068;2023-04-03T09:22:38;3.37;;;1.50;;
47796;SDS011;33558;50.922;14.068;2023-04-03T09:25:08;3.57;;;1.70;;
47796;SDS011;33558;50.922;14.068;2023-04-03T09:27:40;4.53;;;1.57;;
47796;SDS011;33558;50.922;14.068;2023-04-03T09:30:08;5.27;;;1.80;;
47796;SDS011;33558;50.922;14.068;2023-04-03T09:32:39;8.00;;;1.80;;
47796;SDS011;33558;50.922;14.068;2023-04-03T09:35:14;4.50;;;1.70;;
47796;SDS011;33558;50.922;14.068;2023-04-03T09:37:45;6.23;;;1.80;;
47796;SDS011;33558;50.922;14.068;2023-04-03T09:40:29;3.87;;;1.20;;
47796;SDS011;33558;50.922;14.068;2023-04-03T09:43:01;3.15;;;1.38;;
47796;SDS011;33558;50.922;14.068;2023-04-03T09:45:29;4.33;;;1.70;;
47796;SDS011;33558;50.922;14.068;2023-04-03T09:48:05;3.67;;;1.47;;
47796;SDS011;33558;50.922;14.068;2023-04-03T09:50:33;3.95;;;1.27;;
47796;SDS011;33558;50.922;14.068;2023-04-03T09:53:05;3.27;;;1.43;;
47796;SDS011;33558;50.922;14.068;2023-04-03T09:55:41;2.73;;;1.10;;
47796;SDS011;33558;50.922;14.068;2023-04-03T09:58:24;3.47;;;1.27;;
47796;SDS011;33558;50.922;14.068;2023-04-03T10:00:56;3.97;;;1.30;;
47796;SDS011;33558;50.922;14.068;2023-04-03T10:03:25;3.53;;;1.10;;
47796;SDS011;33558;50.922;14.068;2023-04-03T10:05:54;5.33;;;1.50;;
47796;SDS011;33558;50.922;14.068;2023-04-03T10:08:24;3.30;;;1.13;;
47796;SDS011;33558;50.922;14.068;2023-04-03T10:11:09;3.37;;;1.13;;
47796;SDS011;33558;50.922;14.068;2023-04-03T10:13:50;2.35;;;1.08;;
47796;SDS011;33558;50.922;14.068;2023-04-03T10:16:18;3.33;;;1.33;;
47796;SDS011;33558;50.922;14.068;2023-04-03T10:18:48;3.27;;;0.90;;
47796;SDS011;33558;50.922;14.068;2023-04-03T10:21:20;6.17;;;1.23;;
47796;SDS011;33558;50.922;14.068;2023-04-03T10:23:57;2.93;;;1.33;;
47796;SDS011;33558;50.922;14.068;2023-04-03T10:26:32;5.30;;;1.37;;
47796;SDS011;33558;50.922;14.068;2023-04-03T10:29:09;3.00;;;1.13;;
47796;SDS011;33558;50.922;14.068;2023-04-03T10:31:49;3.23;;;1.37;;
47796;SDS011;33558;50.922;14.068;2023-04-03T10:34:19;3.10;;;1.30;;
47796;SDS011;33558;50.922;14.068;2023-04-03T10:36:49;4.80;;;1.50;;
47796;SDS011;33558;50.922;14.068;2023-04-03T10:39:23;3.43;;;1.20;;
47796;SDS011;33558;50.922;14.068;2023-04-03T10:41:57;1.37;;;0.70;;
47796;SDS011;33558;50.922;14.068;2023-04-03T10:44:31;1.90;;;0.90;;
47796;SDS011;33558;50.922;14.068;2023-04-03T10:47:05;2.50;;;1.05;;
47796;SDS011;33558;50.922;14.068;2023-04-03T10:49:38;3.87;;;1.30;;
47796;SDS011;33558;50.922;14.068;2023-04-03T10:52:13;2.30;;;1.47;;
47796;SDS011;33558;50.922;14.068;2023-04-03T10:54:45;2.50;;;0.90;;
47796;SDS011;33558;50.922;14.068;2023-04-03T10:57:14;5.87;;;1.10;;
47796;SDS011;33558;50.922;14.068;2023-04-03T10:59:43;3.53;;;1.07;;
47796;SDS011;33558;50.922;14.068;2023-04-03T11:02:14;4.33;;;1.00;;
47796;SDS011;33558;50.922;14.068;2023-04-03T11:04:44;4.60;;;1.90;;
47796;SDS011;33558;50.922;14.068;2023-04-03T11:07:15;3.33;;;1.23;;
47796;SDS011;33558;50.922;14.068;2023-04-03T11:09:46;3.37;;;1.10;;
47796;SDS011;33558;50.922;14.068;2023-04-03T11:12:15;2.10;;;0.80;;
47796;SDS011;33558;50.922;14.068;2023-04-03T11:14:45;2.33;;;0.80;;
47796;SDS011;33558;50.922;14.068;2023-04-03T11:17:16;4.43;;;1.00;;
47796;SDS011;33558;50.922;14.068;2023-04-03T11:19:49;3.07;;;1.13;;
47796;SDS011;33558;50.922;14.068;2023-04-03T11:22:21;4.37;;;1.33;;
47796;SDS011;33558;50.922;14.068;2023-04-03T11:24:55;1.90;;;0.77;;
47796;SDS011;33558;50.922;14.068;2023-04-03T11:27:25;3.30;;;0.87;;
47796;SDS011;33558;50.922;14.068;2023-04-03T11:29:57;2.97;;;0.80;;
47796;SDS011;33558;50.922;14.068;2023-04-03T11:32:39;3.10;;;0.73;;
47796;SDS011;33558;50.922;14.068;2023-04-03T11:35:15;1.80;;;0.80;;
47796;SDS011;33558;50.922;14.068;2023-04-03T11:37:44;2.53;;;0.80;;
47796;SDS011;33558;50.922;14.068;2023-04-03T11:40:19;3.10;;;1.03;;
47796;SDS011;33558;50.922;14.068;2023-04-03T11:42:48;2.53;;;1.15;;
47796;SDS011;33558;50.922;14.068;2023-04-03T11:54:42;2.00;;;0.77;;
47796;SDS011;33558;50.922;14.068;2023-04-03T12:09:33;4.70;;;1.60;;
47796;SDS011;33558;50.922;14.068;2023-04-03T12:14:54;1.80;;;0.73;;
47796;SDS011;33558;50.922;14.068;2023-04-03T12:17:26;3.40;;;1.10;;
47796;SDS011;33558;50.922;14.068;2023-04-03T12:19:54;4.73;;;1.07;;
47796;SDS011;33558;50.922;14.068;2023-04-03T12:22:21;4.10;;;1.07;;
47796;SDS011;33558;50.922;14.068;2023-04-03T12:24:49;1.87;;;0.73;;
47796;SDS011;33558;50.922;14.068;2023-04-03T12:27:19;3.20;;;0.90;;
47796;SDS011;33558;50.922;14.068;2023-04-03T12:29:53;1.60;;;0.70;;
47796;SDS011;33558;50.922;14.068;2023-04-03T12:32:26;2.60;;;0.80;;
47796;SDS011;33558;50.922;14.068;2023-04-03T12:35:08;3.97;;;1.40;;
47796;SDS011;33558;50.922;14.068;2023-04-03T12:37:44;2.33;;;0.90;;
47796;SDS011;33558;50.922;14.068;2023-04-03T12:40:21;3.63;;;1.00;;
47796;SDS011;33558;50.922;14.068;2023-04-03T12:45:56;1.83;;;0.70;;
47796;SDS011;33558;50.922;14.068;2023-04-03T12:48:27;2.47;;;0.70;;
47796;SDS011;33558;50.922;14.068;2023-04-03T12:50:56;2.10;;;0.80;;
47796;SDS011;33558;50.922;14.068;2023-04-03T12:53:24;4.20;;;0.97;;
47796;SDS011;33558;50.922;14.068;2023-04-03T12:55:53;3.77;;;1.00;;
47796;SDS011;33558;50.922;14.068;2023-04-03T12:58:21;3.07;;;1.20;;
47796;SDS011;33558;50.922;14.068;2023-04-03T13:00:58;2.50;;;1.10;;
47796;SDS011;33558;50.922;14.068;2023-04-03T13:03:27;1.00;;;0.57;;
47796;SDS011;33558;50.922;14.068;2023-04-03T13:05:55;3.20;;;1.07;;
47796;SDS011;33558;50.922;14.068;2023-04-03T13:08:27;6.40;;;0.97;;
47796;SDS011;33558;50.922;14.068;2023-04-03T13:10:55;4.80;;;1.07;;
47796;SDS011;33558;50.922;14.068;2023-04-03T13:13:23;3.90;;;1.10;;
47796;SDS011;33558;50.922;14.068;2023-04-03T13:15:51;2.00;;;0.80;;
47796;SDS011;33558;50.922;14.068;2023-04-03T13:18:21;2.97;;;1.07;;
47796;SDS011;33558;50.922;14.068;2023-04-03T13:20:50;3.43;;;0.87;;
47796;SDS011;33558;50.922;14.068;2023-04-03T13:23:17;3.27;;;0.87;;
47796;SDS011;33558;50.922;14.068;2023-04-03T13:25:46;3.07;;;1.00;;
47796;SDS011;33558;50.922;14.068;2023-04-03T13:28:15;3.80;;;1.13;;
47796;SDS011;33558;50.922;14.068;2023-04-03T13:30:54;3.53;;;1.03;;
47796;SDS011;33558;50.922;14.068;2023-04-03T13:33:23;1.60;;;0.70;;
47796;SDS011;33558;50.922;14.068;2023-04-03T13:35:56;2.90;;;0.80;;
47796;SDS011;33558;50.922;14.068;2023-04-03T13:38:25;2.17;;;0.70;;
47796;SDS011;33558;50.922;14.068;2023-04-03T13:40:57;3.73;;;1.20;;
47796;SDS011;33558;50.922;14.068;2023-04-03T13:43:26;3.37;;;1.27;;
47796;SDS011;33558;50.922;14.068;2023-04-03T13:45:55;3.33;;;1.23;;
47796;SDS011;33558;50.922;14.068;2023-04-03T13:48:24;2.97;;;1.20;;
47796;SDS011;33558;50.922;14.068;2023-04-03T13:50:59;4.57;;;1.03;;
47796;SDS011;33558;50.922;14.068;2023-04-03T13:53:26;3.90;;;0.93;;
47796;SDS011;33558;50.922;14.068;2023-04-03T13:55:59;4.27;;;1.33;;
47796;SDS011;33558;50.922;14.068;2023-04-03T13:58:32;2.97;;;1.10;;
47796;SDS011;33558;50.922;14.068;2023-04-03T14:00:59;4.60;;;0.90;;
47796;SDS011;33558;50.922;14.068;2023-04-03T14:03:29;4.00;;;1.00;;
47796;SDS011;33558;50.922;14.068;2023-04-03T14:05:57;2.93;;;0.77;;
47796;SDS011;33558;50.922;14.068;2023-04-03T14:08:26;2.93;;;1.10;;
47796;SDS011;33558;50.922;14.068;2023-04-03T14:10:53;2.23;;;0.90;;
47796;SDS011;33558;50.922;14.068;2023-04-03T14:13:20;5.83;;;1.17;;
47796;SDS011;33558;50.922;14.068;2023-04-03T14:15:47;4.03;;;1.07;;
47796;SDS011;33558;50.922;14.068;2023-04-03T14:18:17;3.67;;;1.00;;
47796;SDS011;33558;50.922;14.068;2023-04-03T14:20:44;2.43;;;0.90;;
47796;SDS011;33558;50.922;14.068;2023-04-03T14:23:12;3.87;;;1.20;;
47796;SDS011;33558;50.922;14.068;2023-04-03T14:25:40;2.67;;;1.03;;
47796;SDS011;33558;50.922;14.068;2023-04-03T14:28:12;3.10;;;1.03;;
47796;SDS011;33558;50.922;14.068;2023-04-03T14:30:42;5.77;;;0.90;;
47796;SDS011;33558;50.922;14.068;2023-04-03T14:33:09;2.10;;;0.83;;
47796;SDS011;33558;50.922;14.068;2023-04-03T14:35:39;3.83;;;0.87;;
47796;SDS011;33558;50.922;14.068;2023-04-03T14:38:06;6.03;;;1.37;;
47796;SDS011;33558;50.922;14.068;2023-04-03T14:40:41;3.25;;;1.35;;
47796;SDS011;33558;50.922;14.068;2023-04-03T14:43:09;5.37;;;1.30;;
47796;SDS011;33558;50.922;14.068;2023-04-03T14:45:36;5.07;;;1.33;;
47796;SDS011;33558;50.922;14.068;2023-04-03T14:48:03;2.37;;;1.23;;
47796;SDS011;33558;50.922;14.068;2023-04-03T14:50:30;1.83;;;1.10;;
47796;SDS011;33558;50.922;14.068;2023-04-03T14:52:58;4.00;;;1.60;;
47796;SDS011;33558;50.922;14.068;2023-04-03T14:55:26;3.97;;;1.17;;
47796;SDS011;33558;50.922;14.068;2023-04-03T14:57:54;3.40;;;1.10;;
47796;SDS011;33558;50.922;14.068;2023-04-03T15:00:21;4.73;;;1.20;;
47796;SDS011;33558;50.922;14.068;2023-04-03T15:02:48;4.67;;;1.53;;
47796;SDS011;33558;50.922;14.068;2023-04-03T15:05:15;3.23;;;1.30;;
47796;SDS011;33558;50.922;14.068;2023-04-03T15:07:43;4.53;;;2.13;;
47796;SDS011;33558;50.922;14.068;2023-04-03T15:10:17;5.83;;;1.43;;
47796;SDS011;33558;50.922;14.068;2023-04-03T15:12:47;2.33;;;1.00;;
47796;SDS011;33558;50.922;14.068;2023-04-03T15:15:15;4.50;;;1.67;;